sensor_id;sensor_type;location;lat;lon;timestamp;temperature;humidity
11446;DHT22;5779;64.178;15.432;2022-11-15T00:00:22;0.10;99.90
11446;DHT22;5779;64.178;15.432;2022-11-15T00:03:09;0.00;99.90
11446;DHT22;5779;64.178;15.432;2022-11-15T00:06:01;0.10;99.90
11446;DHT22;5779;64.178;15.432;2022-11-15T00:08:50;-0.10;99.90
11446;DHT22;5779;64.178;15.432;2022-11-15T00:11:37;-0.30;99.90
11446;DHT22;5779;64.178;15.432;2022-11-15T00:14:23;-0.60;99.90
11446;DHT22;5779;64.178;15.432;2022-11-15T00:17:10;-0.70;99.90
11446;DHT22;5779;64.178;15.432;2022-11-15T00:19:57;-0.90;99.90
11446;DHT22;5779;64.178;15.432;2022-11-15T00:22:44;-0.90;99.90
11446;DHT22;5779;64.178;15.432;2022-11-15T00:25:33;-0.90;99.90
11446;DHT22;5779;64.178;15.432;2022-11-15T00:28:19;-0.80;99.90
11446;DHT22;5779;64.178;15.432;2022-11-15T00:31:08;-0.70;99.90
11446;DHT22;5779;64.178;15.432;2022-11-15T00:33:55;-0.70;99.90
11446;DHT22;5779;64.178;15.432;2022-11-15T00:36:42;-0.80;99.90
11446;DHT22;5779;64.178;15.432;2022-11-15T00:39:29;-0.80;99.90
11446;DHT22;5779;64.178;15.432;2022-11-15T00:42:17;-1.00;99.90
11446;DHT22;5779;64.178;15.432;2022-11-15T00:45:05;-1.20;99.90
11446;DHT22;5779;64.178;15.432;2022-11-15T00:47:52;-1.30;99.90
11446;DHT22;5779;64.178;15.432;2022-11-15T00:50:39;-1.40;99.90
11446;DHT22;5779;64.178;15.432;2022-11-15T00:53:26;-1.50;99.90
11446;DHT22;5779;64.178;15.432;2022-11-15T00:56:13;-1.60;99.90
11446;DHT22;5779;64.178;15.432;2022-11-15T00:59:01;-1.70;99.90
11446;DHT22;5779;64.178;15.432;2022-11-15T01:01:48;-1.60;99.90
11446;DHT22;5779;64.178;15.432;2022-11-15T01:04:35;-1.50;99.90
11446;DHT22;5779;64.178;15.432;2022-11-15T01:07:22;-1.50;99.90
11446;DHT22;5779;64.178;15.432;2022-11-15T01:10:09;-1.50;99.90
11446;DHT22;5779;64.178;15.432;2022-11-15T01:12:56;-1.60;99.90
11446;DHT22;5779;64.178;15.432;2022-11-15T01:15:45;-1.50;99.90
11446;DHT22;5779;64.178;15.432;2022-11-15T01:18:32;-1.40;99.90
11446;DHT22;5779;64.178;15.432;2022-11-15T01:21:19;-1.40;99.90
11446;DHT22;5779;64.178;15.432;2022-11-15T01:24:07;-1.30;99.90
11446;DHT22;5779;64.178;15.432;2022-11-15T01:26:54;-1.20;99.90
11446;DHT22;5779;64.178;15.432;2022-11-15T01:29:41;-0.90;99.90
11446;DHT22;5779;64.178;15.432;2022-11-15T01:32:29;-0.90;99.90
11446;DHT22;5779;64.178;15.432;2022-11-15T01:35:16;-0.70;99.90
11446;DHT22;5779;64.178;15.432;2022-11-15T01:38:03;-0.60;99.90
11446;DHT22;5779;64.178;15.432;2022-11-15T01:40:50;-0.80;99.90
11446;DHT22;5779;64.178;15.432;2022-11-15T01:43:37;-1.30;99.90
11446;DHT22;5779;64.178;15.432;2022-11-15T01:46:27;-1.40;99.90
11446;DHT22;5779;64.178;15.432;2022-11-15T01:49:19;-1.60;99.90
11446;DHT22;5779;64.178;15.432;2022-11-15T01:52:09;-1.70;99.90
11446;DHT22;5779;64.178;15.432;2022-11-15T01:55:00;-1.60;99.90
11446;DHT22;5779;64.178;15.432;2022-11-15T01:57:51;-1.60;99.90
11446;DHT22;5779;64.178;15.432;2022-11-15T02:00:39;-1.70;99.90
11446;DHT22;5779;64.178;15.432;2022-11-15T02:03:33;-1.80;99.90
11446;DHT22;5779;64.178;15.432;2022-11-15T02:06:23;-1.90;99.90
11446;DHT22;5779;64.178;15.432;2022-11-15T02:09:11;-1.70;99.90
11446;DHT22;5779;64.178;15.432;2022-11-15T02:11:59;-1.50;99.90
11446;DHT22;5779;64.178;15.432;2022-11-15T02:14:48;-1.60;99.90
11446;DHT22;5779;64.178;15.432;2022-11-15T02:17:53;-1.40;99.90
11446;DHT22;5779;64.178;15.432;2022-11-15T02:20:51;-1.50;99.90
11446;DHT22;5779;64.178;15.432;2022-11-15T02:24:06;-1.50;99.90
11446;DHT22;5779;64.178;15.432;2022-11-15T02:27:42;-1.50;99.90
11446;DHT22;5779;64.178;15.432;2022-11-15T02:30:41;-1.60;99.90
11446;DHT22;5779;64.178;15.432;2022-11-15T02:33:36;-1.60;99.90
11446;DHT22;5779;64.178;15.432;2022-11-15T02:36:34;-1.40;99.90
11446;DHT22;5779;64.178;15.432;2022-11-15T02:39:27;-1.30;99.90
11446;DHT22;5779;64.178;15.432;2022-11-15T02:42:17;-1.30;99.90
11446;DHT22;5779;64.178;15.432;2022-11-15T02:45:26;-1.40;99.90
11446;DHT22;5779;64.178;15.432;2022-11-15T02:48:15;-1.70;99.90
11446;DHT22;5779;64.178;15.432;2022-11-15T02:51:04;-2.10;99.90
11446;DHT22;5779;64.178;15.432;2022-11-15T02:53:52;-2.00;99.90
11446;DHT22;5779;64.178;15.432;2022-11-15T02:56:39;-1.90;99.90
11446;DHT22;5779;64.178;15.432;2022-11-15T02:59:56;-2.00;99.90
11446;DHT22;5779;64.178;15.432;2022-11-15T03:03:02;-2.10;99.90
11446;DHT22;5779;64.178;15.432;2022-11-15T03:05:58;-2.20;99.90
11446;DHT22;5779;64.178;15.432;2022-11-15T03:08:55;-2.10;99.90
11446;DHT22;5779;64.178;15.432;2022-11-15T03:11:48;-2.10;99.90
11446;DHT22;5779;64.178;15.432;2022-11-15T03:14:40;-2.10;99.90
11446;DHT22;5779;64.178;15.432;2022-11-15T03:17:34;-1.90;99.90
11446;DHT22;5779;64.178;15.432;2022-11-15T03:20:23;-1.80;99.90
11446;DHT22;5779;64.178;15.432;2022-11-15T03:23:13;-1.70;99.90
11446;DHT22;5779;64.178;15.432;2022-11-15T03:26:00;-1.70;99.90
11446;DHT22;5779;64.178;15.432;2022-11-15T03:28:50;-1.90;99.90
11446;DHT22;5779;64.178;15.432;2022-11-15T03:31:43;-2.10;99.90
11446;DHT22;5779;64.178;15.432;2022-11-15T03:34:37;-2.10;99.90
11446;DHT22;5779;64.178;15.432;2022-11-15T03:37:30;-2.30;99.90
11446;DHT22;5779;64.178;15.432;2022-11-15T03:40:24;-2.30;99.90
11446;DHT22;5779;64.178;15.432;2022-11-15T03:43:18;-2.30;99.90
11446;DHT22;5779;64.178;15.432;2022-11-15T03:46:13;-2.30;99.90
11446;DHT22;5779;64.178;15.432;2022-11-15T03:49:07;-2.30;99.90
11446;DHT22;5779;64.178;15.432;2022-11-15T03:51:57;-2.30;99.90
11446;DHT22;5779;64.178;15.432;2022-11-15T03:54:50;-2.30;99.90
11446;DHT22;5779;64.178;15.432;2022-11-15T03:57:38;-2.20;99.90
11446;DHT22;5779;64.178;15.432;2022-11-15T04:00:25;-2.20;99.90
11446;DHT22;5779;64.178;15.432;2022-11-15T04:03:12;-2.30;99.90
11446;DHT22;5779;64.178;15.432;2022-11-15T04:05:58;-2.20;99.90
11446;DHT22;5779;64.178;15.432;2022-11-15T04:08:45;-2.10;99.90
11446;DHT22;5779;64.178;15.432;2022-11-15T04:11:32;-2.00;99.90
11446;DHT22;5779;64.178;15.432;2022-11-15T04:14:21;-2.00;99.90
11446;DHT22;5779;64.178;15.432;2022-11-15T04:17:07;-2.00;99.90
11446;DHT22;5779;64.178;15.432;2022-11-15T04:19:54;-2.10;99.90
11446;DHT22;5779;64.178;15.432;2022-11-15T04:22:59;-2.10;99.90
11446;DHT22;5779;64.178;15.432;2022-11-15T04:26:05;-2.40;99.90
11446;DHT22;5779;64.178;15.432;2022-11-15T04:28:54;-2.50;99.90
11446;DHT22;5779;64.178;15.432;2022-11-15T04:32:00;-2.50;99.90
11446;DHT22;5779;64.178;15.432;2022-11-15T04:34:47;-2.70;99.90
11446;DHT22;5779;64.178;15.432;2022-11-15T04:37:34;-3.00;99.90
11446;DHT22;5779;64.178;15.432;2022-11-15T04:40:20;-3.10;99.90
11446;DHT22;5779;64.178;15.432;2022-11-15T04:43:07;-3.00;99.90
11446;DHT22;5779;64.178;15.432;2022-11-15T04:45:54;-2.70;99.90
11446;DHT22;5779;64.178;15.432;2022-11-15T04:48:43;-2.70;99.90
11446;DHT22;5779;64.178;15.432;2022-11-15T04:51:30;-2.70;99.90
11446;DHT22;5779;64.178;15.432;2022-11-15T04:54:17;-2.70;99.90
11446;DHT22;5779;64.178;15.432;2022-11-15T04:57:03;-3.00;99.90
11446;DHT22;5779;64.178;15.432;2022-11-15T04:59:50;-2.90;99.90
11446;DHT22;5779;64.178;15.432;2022-11-15T05:02:37;-2.80;99.90
11446;DHT22;5779;64.178;15.432;2022-11-15T05:05:42;-2.90;99.90
11446;DHT22;5779;64.178;15.432;2022-11-15T05:08:29;-3.20;99.90
11446;DHT22;5779;64.178;15.432;2022-11-15T05:11:16;-3.40;99.90
11446;DHT22;5779;64.178;15.432;2022-11-15T05:14:03;-3.40;99.90
11446;DHT22;5779;64.178;15.432;2022-11-15T05:16:50;-3.30;99.90
11446;DHT22;5779;64.178;15.432;2022-11-15T05:19:37;-3.20;99.90
11446;DHT22;5779;64.178;15.432;2022-11-15T05:22:25;-3.20;99.90
11446;DHT22;5779;64.178;15.432;2022-11-15T05:25:12;-3.30;99.90
11446;DHT22;5779;64.178;15.432;2022-11-15T05:27:59;-3.30;99.90
11446;DHT22;5779;64.178;15.432;2022-11-15T05:30:45;-3.30;99.90
11446;DHT22;5779;64.178;15.432;2022-11-15T05:33:34;-3.30;99.90
11446;DHT22;5779;64.178;15.432;2022-11-15T05:36:27;-3.30;99.90
11446;DHT22;5779;64.178;15.432;2022-11-15T05:39:17;-3.20;99.90
11446;DHT22;5779;64.178;15.432;2022-11-15T05:42:07;-3.40;99.90
11446;DHT22;5779;64.178;15.432;2022-11-15T05:44:56;-3.40;99.90
11446;DHT22;5779;64.178;15.432;2022-11-15T05:47:44;-3.30;99.90
11446;DHT22;5779;64.178;15.432;2022-11-15T05:50:31;-3.30;99.90
11446;DHT22;5779;64.178;15.432;2022-11-15T05:53:20;-3.10;99.90
11446;DHT22;5779;64.178;15.432;2022-11-15T05:56:09;-3.20;99.90
11446;DHT22;5779;64.178;15.432;2022-11-15T05:58:57;-3.30;99.90
11446;DHT22;5779;64.178;15.432;2022-11-15T06:01:44;-3.40;99.90
11446;DHT22;5779;64.178;15.432;2022-11-15T06:04:31;-3.50;99.90
11446;DHT22;5779;64.178;15.432;2022-11-15T06:07:18;-3.70;99.90
11446;DHT22;5779;64.178;15.432;2022-11-15T06:10:05;-3.70;99.90
11446;DHT22;5779;64.178;15.432;2022-11-15T06:12:58;-3.60;99.90
11446;DHT22;5779;64.178;15.432;2022-11-15T06:15:45;-3.80;99.90
11446;DHT22;5779;64.178;15.432;2022-11-15T06:18:32;-3.90;99.90
11446;DHT22;5779;64.178;15.432;2022-11-15T06:21:20;-4.00;99.90
11446;DHT22;5779;64.178;15.432;2022-11-15T06:24:07;-4.00;99.90
11446;DHT22;5779;64.178;15.432;2022-11-15T06:26:53;-3.90;99.90
11446;DHT22;5779;64.178;15.432;2022-11-15T06:29:42;-3.70;99.90
11446;DHT22;5779;64.178;15.432;2022-11-15T06:32:29;-3.80;99.90
11446;DHT22;5779;64.178;15.432;2022-11-15T06:35:17;-3.70;99.90
11446;DHT22;5779;64.178;15.432;2022-11-15T06:38:04;-3.70;99.90
11446;DHT22;5779;64.178;15.432;2022-11-15T06:40:52;-3.60;99.90
11446;DHT22;5779;64.178;15.432;2022-11-15T06:43:39;-3.50;99.90
11446;DHT22;5779;64.178;15.432;2022-11-15T06:46:27;-3.40;99.90
11446;DHT22;5779;64.178;15.432;2022-11-15T06:49:14;-3.40;99.90
11446;DHT22;5779;64.178;15.432;2022-11-15T06:52:01;-3.40;99.90
11446;DHT22;5779;64.178;15.432;2022-11-15T06:54:48;-3.40;99.90
11446;DHT22;5779;64.178;15.432;2022-11-15T06:57:35;-3.50;99.90
11446;DHT22;5779;64.178;15.432;2022-11-15T07:00:22;-3.50;99.90
11446;DHT22;5779;64.178;15.432;2022-11-15T07:03:12;-3.80;99.90
11446;DHT22;5779;64.178;15.432;2022-11-15T07:05:59;-3.80;99.90
11446;DHT22;5779;64.178;15.432;2022-11-15T07:08:46;-3.80;99.90
11446;DHT22;5779;64.178;15.432;2022-11-15T07:11:33;-3.90;99.90
11446;DHT22;5779;64.178;15.432;2022-11-15T07:14:20;-3.80;99.90
11446;DHT22;5779;64.178;15.432;2022-11-15T07:17:06;-3.80;99.90
11446;DHT22;5779;64.178;15.432;2022-11-15T07:19:55;-4.00;99.90
11446;DHT22;5779;64.178;15.432;2022-11-15T07:22:42;-4.00;99.90
11446;DHT22;5779;64.178;15.432;2022-11-15T07:25:30;-4.10;99.90
11446;DHT22;5779;64.178;15.432;2022-11-15T07:28:17;-4.20;99.90
11446;DHT22;5779;64.178;15.432;2022-11-15T07:31:05;-4.00;99.90
11446;DHT22;5779;64.178;15.432;2022-11-15T07:33:52;-3.80;99.90
11446;DHT22;5779;64.178;15.432;2022-11-15T07:36:41;-4.00;99.90
11446;DHT22;5779;64.178;15.432;2022-11-15T07:39:28;-3.90;99.90
11446;DHT22;5779;64.178;15.432;2022-11-15T07:42:14;-3.90;99.90
11446;DHT22;5779;64.178;15.432;2022-11-15T07:45:18;-3.90;99.90
11446;DHT22;5779;64.178;15.432;2022-11-15T07:48:06;-3.80;99.90
11446;DHT22;5779;64.178;15.432;2022-11-15T07:50:53;-3.90;99.90
11446;DHT22;5779;64.178;15.432;2022-11-15T07:53:41;-4.00;99.90
11446;DHT22;5779;64.178;15.432;2022-11-15T07:56:28;-3.90;99.90
11446;DHT22;5779;64.178;15.432;2022-11-15T07:59:15;-3.70;99.90
11446;DHT22;5779;64.178;15.432;2022-11-15T08:02:01;-3.60;99.90
11446;DHT22;5779;64.178;15.432;2022-11-15T08:04:48;-3.90;99.90
11446;DHT22;5779;64.178;15.432;2022-11-15T08:07:35;-4.10;99.90
11446;DHT22;5779;64.178;15.432;2022-11-15T08:10:24;-4.20;99.90
11446;DHT22;5779;64.178;15.432;2022-11-15T08:13:12;-4.30;99.90
11446;DHT22;5779;64.178;15.432;2022-11-15T08:15:59;-4.30;99.90
11446;DHT22;5779;64.178;15.432;2022-11-15T08:18:46;-4.10;99.90
11446;DHT22;5779;64.178;15.432;2022-11-15T08:21:33;-4.00;99.90
11446;DHT22;5779;64.178;15.432;2022-11-15T08:24:20;-4.00;99.90
11446;DHT22;5779;64.178;15.432;2022-11-15T08:27:08;-3.90;99.90
11446;DHT22;5779;64.178;15.432;2022-11-15T08:29:59;-3.80;99.90
11446;DHT22;5779;64.178;15.432;2022-11-15T08:32:46;-3.70;99.90
11446;DHT22;5779;64.178;15.432;2022-11-15T08:35:33;-3.70;99.90
11446;DHT22;5779;64.178;15.432;2022-11-15T08:38:20;-3.70;99.90
11446;DHT22;5779;64.178;15.432;2022-11-15T08:41:11;-3.60;99.90
11446;DHT22;5779;64.178;15.432;2022-11-15T08:44:00;-3.50;99.90
11446;DHT22;5779;64.178;15.432;2022-11-15T08:46:47;-3.30;99.90
11446;DHT22;5779;64.178;15.432;2022-11-15T08:49:34;-3.30;99.90
11446;DHT22;5779;64.178;15.432;2022-11-15T08:52:21;-3.20;99.90
11446;DHT22;5779;64.178;15.432;2022-11-15T08:55:08;-3.10;99.90
11446;DHT22;5779;64.178;15.432;2022-11-15T08:57:57;-3.00;99.90
11446;DHT22;5779;64.178;15.432;2022-11-15T09:00:45;-3.00;99.90
11446;DHT22;5779;64.178;15.432;2022-11-15T09:03:32;-3.20;99.90
11446;DHT22;5779;64.178;15.432;2022-11-15T09:06:19;-3.10;99.90
11446;DHT22;5779;64.178;15.432;2022-11-15T09:09:06;-2.90;99.90
11446;DHT22;5779;64.178;15.432;2022-11-15T09:11:53;-2.70;99.90
11446;DHT22;5779;64.178;15.432;2022-11-15T09:14:40;-2.80;99.90
11446;DHT22;5779;64.178;15.432;2022-11-15T09:17:28;-2.70;99.90
11446;DHT22;5779;64.178;15.432;2022-11-15T09:20:16;-2.70;99.90
11446;DHT22;5779;64.178;15.432;2022-11-15T09:23:03;-2.70;99.90
11446;DHT22;5779;64.178;15.432;2022-11-15T09:25:51;-2.70;99.90
11446;DHT22;5779;64.178;15.432;2022-11-15T09:28:38;-2.50;99.90
11446;DHT22;5779;64.178;15.432;2022-11-15T09:31:27;-2.20;99.90
11446;DHT22;5779;64.178;15.432;2022-11-15T09:34:16;-2.10;99.90
11446;DHT22;5779;64.178;15.432;2022-11-15T09:37:03;-2.00;99.90
11446;DHT22;5779;64.178;15.432;2022-11-15T09:39:50;-2.00;99.90
11446;DHT22;5779;64.178;15.432;2022-11-15T09:42:51;-2.00;99.90
11446;DHT22;5779;64.178;15.432;2022-11-15T09:45:46;-1.90;99.90
11446;DHT22;5779;64.178;15.432;2022-11-15T09:48:48;-1.60;99.90
11446;DHT22;5779;64.178;15.432;2022-11-15T09:51:41;-1.60;99.90
11446;DHT22;5779;64.178;15.432;2022-11-15T09:54:33;-1.80;99.90
11446;DHT22;5779;64.178;15.432;2022-11-15T09:57:24;-1.70;99.90
11446;DHT22;5779;64.178;15.432;2022-11-15T10:00:18;-1.50;99.90
11446;DHT22;5779;64.178;15.432;2022-11-15T10:03:12;-1.30;99.90
11446;DHT22;5779;64.178;15.432;2022-11-15T10:06:01;-1.20;99.90
11446;DHT22;5779;64.178;15.432;2022-11-15T10:08:56;-1.00;99.90
11446;DHT22;5779;64.178;15.432;2022-11-15T10:11:45;-1.00;99.90
11446;DHT22;5779;64.178;15.432;2022-11-15T10:14:32;-1.00;99.90
11446;DHT22;5779;64.178;15.432;2022-11-15T10:18:04;-1.00;99.90
11446;DHT22;5779;64.178;15.432;2022-11-15T10:20:55;-0.90;99.90
11446;DHT22;5779;64.178;15.432;2022-11-15T10:23:44;-0.90;99.90
11446;DHT22;5779;64.178;15.432;2022-11-15T10:26:32;-0.90;99.90
11446;DHT22;5779;64.178;15.432;2022-11-15T10:29:20;-0.60;99.90
11446;DHT22;5779;64.178;15.432;2022-11-15T10:32:07;-0.80;99.90
11446;DHT22;5779;64.178;15.432;2022-11-15T10:34:53;-0.80;99.90
11446;DHT22;5779;64.178;15.432;2022-11-15T10:37:40;-0.60;99.90
11446;DHT22;5779;64.178;15.432;2022-11-15T10:40:27;-0.70;99.90
11446;DHT22;5779;64.178;15.432;2022-11-15T10:43:17;-0.70;99.90
11446;DHT22;5779;64.178;15.432;2022-11-15T10:46:19;-0.70;99.90
11446;DHT22;5779;64.178;15.432;2022-11-15T10:49:13;-0.70;99.90
11446;DHT22;5779;64.178;15.432;2022-11-15T10:52:04;-0.60;99.90
11446;DHT22;5779;64.178;15.432;2022-11-15T10:54:54;-0.60;99.90
11446;DHT22;5779;64.178;15.432;2022-11-15T10:57:49;-0.50;99.90
11446;DHT22;5779;64.178;15.432;2022-11-15T11:00:38;-0.40;99.90
11446;DHT22;5779;64.178;15.432;2022-11-15T11:03:29;-0.30;99.90
11446;DHT22;5779;64.178;15.432;2022-11-15T11:06:17;-0.10;99.90
11446;DHT22;5779;64.178;15.432;2022-11-15T11:09:08;-0.20;99.90
11446;DHT22;5779;64.178;15.432;2022-11-15T11:12:09;-0.30;99.90
11446;DHT22;5779;64.178;15.432;2022-11-15T11:14:58;-0.30;99.90
11446;DHT22;5779;64.178;15.432;2022-11-15T11:17:59;-0.20;99.90
11446;DHT22;5779;64.178;15.432;2022-11-15T11:20:53;0.00;99.90
11446;DHT22;5779;64.178;15.432;2022-11-15T11:23:46;0.00;99.90
11446;DHT22;5779;64.178;15.432;2022-11-15T11:26:42;0.00;99.90
11446;DHT22;5779;64.178;15.432;2022-11-15T11:29:41;0.10;99.90
11446;DHT22;5779;64.178;15.432;2022-11-15T11:32:49;-0.10;99.90
11446;DHT22;5779;64.178;15.432;2022-11-15T11:35:45;-0.10;99.90
11446;DHT22;5779;64.178;15.432;2022-11-15T11:38:44;-0.10;99.90
11446;DHT22;5779;64.178;15.432;2022-11-15T11:41:46;0.10;99.90
11446;DHT22;5779;64.178;15.432;2022-11-15T11:44:41;0.40;99.90
11446;DHT22;5779;64.178;15.432;2022-11-15T11:47:31;0.40;99.90
11446;DHT22;5779;64.178;15.432;2022-11-15T11:50:21;0.40;99.90
11446;DHT22;5779;64.178;15.432;2022-11-15T11:53:13;0.40;99.90
11446;DHT22;5779;64.178;15.432;2022-11-15T11:56:04;0.40;99.90
11446;DHT22;5779;64.178;15.432;2022-11-15T11:58:55;0.50;99.90
11446;DHT22;5779;64.178;15.432;2022-11-15T12:01:45;0.50;99.90
11446;DHT22;5779;64.178;15.432;2022-11-15T12:04:37;0.40;99.90
11446;DHT22;5779;64.178;15.432;2022-11-15T12:07:29;0.30;99.90
11446;DHT22;5779;64.178;15.432;2022-11-15T12:10:23;0.50;99.90
11446;DHT22;5779;64.178;15.432;2022-11-15T12:13:15;0.30;99.90
11446;DHT22;5779;64.178;15.432;2022-11-15T12:16:09;0.20;99.90
11446;DHT22;5779;64.178;15.432;2022-11-15T12:19:02;0.00;99.90
11446;DHT22;5779;64.178;15.432;2022-11-15T12:21:54;-0.10;99.90
11446;DHT22;5779;64.178;15.432;2022-11-15T12:24:46;-0.40;99.90
11446;DHT22;5779;64.178;15.432;2022-11-15T12:27:40;-0.50;99.90
11446;DHT22;5779;64.178;15.432;2022-11-15T12:30:39;-0.50;99.90
11446;DHT22;5779;64.178;15.432;2022-11-15T12:33:37;-0.40;99.90
11446;DHT22;5779;64.178;15.432;2022-11-15T12:36:37;-0.10;99.90
11446;DHT22;5779;64.178;15.432;2022-11-15T12:43:01;-0.30;99.90
11446;DHT22;5779;64.178;15.432;2022-11-15T12:45:48;-0.30;99.90
11446;DHT22;5779;64.178;15.432;2022-11-15T12:48:50;-0.20;99.90
11446;DHT22;5779;64.178;15.432;2022-11-15T12:55:01;0.00;99.90
11446;DHT22;5779;64.178;15.432;2022-11-15T12:57:48;0.10;99.90
11446;DHT22;5779;64.178;15.432;2022-11-15T13:00:40;0.10;99.90
11446;DHT22;5779;64.178;15.432;2022-11-15T13:03:28;0.20;99.90
11446;DHT22;5779;64.178;15.432;2022-11-15T13:06:38;0.20;99.90
11446;DHT22;5779;64.178;15.432;2022-11-15T13:09:51;0.10;99.90
11446;DHT22;5779;64.178;15.432;2022-11-15T13:12:57;-0.30;99.90
11446;DHT22;5779;64.178;15.432;2022-11-15T13:15:56;-0.40;99.90
11446;DHT22;5779;64.178;15.432;2022-11-15T13:18:43;-0.60;99.90
11446;DHT22;5779;64.178;15.432;2022-11-15T13:21:49;-0.90;99.90
11446;DHT22;5779;64.178;15.432;2022-11-15T13:24:54;-1.30;99.90
11446;DHT22;5779;64.178;15.432;2022-11-15T13:27:41;-1.60;99.90
11446;DHT22;5779;64.178;15.432;2022-11-15T13:30:30;-1.60;99.90
11446;DHT22;5779;64.178;15.432;2022-11-15T13:33:21;-1.80;99.90
11446;DHT22;5779;64.178;15.432;2022-11-15T13:36:14;-1.90;99.90
11446;DHT22;5779;64.178;15.432;2022-11-15T13:39:04;-2.00;99.90
11446;DHT22;5779;64.178;15.432;2022-11-15T13:41:51;-2.10;99.90
11446;DHT22;5779;64.178;15.432;2022-11-15T13:44:38;-2.10;99.90
11446;DHT22;5779;64.178;15.432;2022-11-15T13:47:27;-2.20;99.90
11446;DHT22;5779;64.178;15.432;2022-11-15T13:50:15;-2.30;99.90
11446;DHT22;5779;64.178;15.432;2022-11-15T13:53:03;-2.40;99.90
11446;DHT22;5779;64.178;15.432;2022-11-15T13:55:59;-2.50;99.90
11446;DHT22;5779;64.178;15.432;2022-11-15T13:58:46;-2.60;99.90
11446;DHT22;5779;64.178;15.432;2022-11-15T14:01:33;-2.60;99.90
11446;DHT22;5779;64.178;15.432;2022-11-15T14:04:21;-2.70;99.90
11446;DHT22;5779;64.178;15.432;2022-11-15T14:07:17;-2.80;99.90
11446;DHT22;5779;64.178;15.432;2022-11-15T14:10:24;-2.70;99.90
11446;DHT22;5779;64.178;15.432;2022-11-15T14:13:27;-2.40;99.90
11446;DHT22;5779;64.178;15.432;2022-11-15T14:16:18;-2.60;99.90
11446;DHT22;5779;64.178;15.432;2022-11-15T14:19:06;-2.70;99.90
11446;DHT22;5779;64.178;15.432;2022-11-15T14:22:09;-2.60;99.90
11446;DHT22;5779;64.178;15.432;2022-11-15T14:25:22;-2.40;99.90
11446;DHT22;5779;64.178;15.432;2022-11-15T14:28:28;-2.30;99.90
11446;DHT22;5779;64.178;15.432;2022-11-15T14:31:15;-2.60;99.90
11446;DHT22;5779;64.178;15.432;2022-11-15T14:34:02;-2.50;99.90
11446;DHT22;5779;64.178;15.432;2022-11-15T14:36:49;-2.30;99.90
11446;DHT22;5779;64.178;15.432;2022-11-15T14:39:35;-2.20;99.90
11446;DHT22;5779;64.178;15.432;2022-11-15T14:42:24;-2.10;99.90
11446;DHT22;5779;64.178;15.432;2022-11-15T14:45:14;-2.20;99.90
11446;DHT22;5779;64.178;15.432;2022-11-15T14:48:04;-2.40;99.90
11446;DHT22;5779;64.178;15.432;2022-11-15T14:50:55;-2.40;99.90
11446;DHT22;5779;64.178;15.432;2022-11-15T14:53:46;-2.50;99.90
11446;DHT22;5779;64.178;15.432;2022-11-15T14:56:32;-2.50;99.90
11446;DHT22;5779;64.178;15.432;2022-11-15T14:59:21;-2.50;99.90
11446;DHT22;5779;64.178;15.432;2022-11-15T15:02:12;-2.40;99.90
11446;DHT22;5779;64.178;15.432;2022-11-15T15:05:01;-2.20;99.90
11446;DHT22;5779;64.178;15.432;2022-11-15T15:07:48;-2.20;99.90
11446;DHT22;5779;64.178;15.432;2022-11-15T15:10:38;-2.40;99.90
11446;DHT22;5779;64.178;15.432;2022-11-15T15:13:25;-2.50;99.90
11446;DHT22;5779;64.178;15.432;2022-11-15T15:16:15;-2.60;99.90
11446;DHT22;5779;64.178;15.432;2022-11-15T15:19:01;-2.40;99.90
11446;DHT22;5779;64.178;15.432;2022-11-15T15:21:48;-2.50;99.90
11446;DHT22;5779;64.178;15.432;2022-11-15T15:24:35;-2.80;99.90
11446;DHT22;5779;64.178;15.432;2022-11-15T15:27:22;-2.90;99.90
11446;DHT22;5779;64.178;15.432;2022-11-15T15:30:10;-3.00;99.90
11446;DHT22;5779;64.178;15.432;2022-11-15T15:33:01;-2.80;99.90
11446;DHT22;5779;64.178;15.432;2022-11-15T15:35:48;-2.70;99.90
11446;DHT22;5779;64.178;15.432;2022-11-15T15:38:35;-3.30;99.90
11446;DHT22;5779;64.178;15.432;2022-11-15T15:41:22;-3.70;99.90
11446;DHT22;5779;64.178;15.432;2022-11-15T15:44:09;-3.80;99.90
11446;DHT22;5779;64.178;15.432;2022-11-15T15:46:56;-4.00;99.90
11446;DHT22;5779;64.178;15.432;2022-11-15T15:49:45;-3.90;99.90
11446;DHT22;5779;64.178;15.432;2022-11-15T15:52:32;-4.00;99.90
11446;DHT22;5779;64.178;15.432;2022-11-15T15:55:20;-4.00;99.90
11446;DHT22;5779;64.178;15.432;2022-11-15T15:58:06;-3.90;99.90
11446;DHT22;5779;64.178;15.432;2022-11-15T16:00:53;-3.90;99.90
11446;DHT22;5779;64.178;15.432;2022-11-15T16:03:40;-3.80;99.90
11446;DHT22;5779;64.178;15.432;2022-11-15T16:06:37;-3.90;99.90
11446;DHT22;5779;64.178;15.432;2022-11-15T16:09:24;-4.10;99.90
11446;DHT22;5779;64.178;15.432;2022-11-15T16:12:24;-4.30;99.90
11446;DHT22;5779;64.178;15.432;2022-11-15T16:15:11;-4.10;99.90
11446;DHT22;5779;64.178;15.432;2022-11-15T16:18:00;-4.20;99.90
11446;DHT22;5779;64.178;15.432;2022-11-15T16:20:48;-4.10;99.90
11446;DHT22;5779;64.178;15.432;2022-11-15T16:23:38;-4.00;99.90
11446;DHT22;5779;64.178;15.432;2022-11-15T16:26:27;-3.70;99.90
11446;DHT22;5779;64.178;15.432;2022-11-15T16:29:15;-3.70;99.90
11446;DHT22;5779;64.178;15.432;2022-11-15T16:32:01;-3.90;99.90
11446;DHT22;5779;64.178;15.432;2022-11-15T16:34:48;-3.80;99.90
11446;DHT22;5779;64.178;15.432;2022-11-15T16:37:35;-3.60;99.90
11446;DHT22;5779;64.178;15.432;2022-11-15T16:40:29;-3.60;99.90
11446;DHT22;5779;64.178;15.432;2022-11-15T16:43:16;-3.70;99.90
11446;DHT22;5779;64.178;15.432;2022-11-15T16:46:08;-3.90;99.90
11446;DHT22;5779;64.178;15.432;2022-11-15T16:48:59;-3.90;99.90
11446;DHT22;5779;64.178;15.432;2022-11-15T16:51:47;-4.10;99.90
11446;DHT22;5779;64.178;15.432;2022-11-15T16:54:34;-4.20;99.90
11446;DHT22;5779;64.178;15.432;2022-11-15T16:57:22;-4.10;99.90
11446;DHT22;5779;64.178;15.432;2022-11-15T17:00:11;-4.00;99.90
11446;DHT22;5779;64.178;15.432;2022-11-15T17:03:00;-3.90;99.90
11446;DHT22;5779;64.178;15.432;2022-11-15T17:05:48;-3.70;99.90
11446;DHT22;5779;64.178;15.432;2022-11-15T17:08:35;-3.50;99.90
11446;DHT22;5779;64.178;15.432;2022-11-15T17:11:22;-3.50;99.90
11446;DHT22;5779;64.178;15.432;2022-11-15T17:14:11;-3.40;99.90
11446;DHT22;5779;64.178;15.432;2022-11-15T17:16:57;-3.30;99.90
11446;DHT22;5779;64.178;15.432;2022-11-15T17:19:44;-3.30;99.90
11446;DHT22;5779;64.178;15.432;2022-11-15T17:22:31;-3.10;99.90
11446;DHT22;5779;64.178;15.432;2022-11-15T17:25:18;-2.90;99.90
11446;DHT22;5779;64.178;15.432;2022-11-15T17:28:05;-2.80;99.90
11446;DHT22;5779;64.178;15.432;2022-11-15T17:30:53;-2.80;99.90
11446;DHT22;5779;64.178;15.432;2022-11-15T17:33:40;-2.70;99.90
11446;DHT22;5779;64.178;15.432;2022-11-15T17:36:27;-2.60;99.90
11446;DHT22;5779;64.178;15.432;2022-11-15T17:39:14;-2.40;99.90
11446;DHT22;5779;64.178;15.432;2022-11-15T17:42:02;-2.20;99.90
11446;DHT22;5779;64.178;15.432;2022-11-15T17:44:49;-2.20;99.90
11446;DHT22;5779;64.178;15.432;2022-11-15T17:47:37;-2.00;99.90
11446;DHT22;5779;64.178;15.432;2022-11-15T17:50:24;-1.90;99.90
11446;DHT22;5779;64.178;15.432;2022-11-15T17:53:10;-1.80;99.90
11446;DHT22;5779;64.178;15.432;2022-11-15T17:56:00;-1.70;99.90
11446;DHT22;5779;64.178;15.432;2022-11-15T17:58:48;-1.60;99.90
11446;DHT22;5779;64.178;15.432;2022-11-15T18:01:36;-1.50;99.90
11446;DHT22;5779;64.178;15.432;2022-11-15T18:04:25;-1.50;99.90